Station GEXA2 - George Island, Alaska Image indicating link to RSS feed of recent meteorological observations for station GEXA2


Conditions at GEXA2 as of
(2:43 pm AKDT)
2243 GMT on 04/14/2024:
     

Click on the graph icon in the table below to see a time series plot of the last five days of that observation.

5-day plot - Wind Direction Wind Direction (WDIR): NW ( 320 deg true )
5-day plot - Wind Speed Wind Speed (WSPD): 4 kts
5-day plot - Wind Gust Wind Gust (GST): 9 kts
5-day plot - Air Temperature Air Temperature (ATMP): 39.0 °F
5-day plot - Dew Point Dew Point (DEWP): 32.5 °F
5-day plot - Wind Chill Wind Chill (CHILL): 35.6 °F
5-day plot - Wind Speed at 10 Meters Wind Speed at 10 meters (WSPD10M): 4 kts
5-day plot - Wind Speed at 20 Meters Wind Speed at 20 meters (WSPD20M): 6 kts
5-day plot -  Wind Speed, Wind Gust and Atmospheric Pressure Combined plot of Wind Speed, Gust, and Air Pressure
Previous observations
TIME
(AKDT)
5-day plot - Wind Direction
WDIR
 
5-day plot - Wind Speed
WSPD
kts
5-day plot - Wind Gust
GST
kts
5-day plot - Wave Height
WVHT
ft
5-day plot - Dominant Wave Period
DPD
sec
5-day plot - Average Wave Period
APD
sec
5-day plot - Mean Wave Direction
MWD
 
5-day plot - Atmospheric Pressure
PRES
in
5-day plot - Pressure Tendency
PTDY
in
5-day plot - Air Temperature
ATMP
°F
5-day plot - Water Temperature
WTMP
°F
5-day plot - Dew Point
DEWP
°F
5-day plot - Salinity
SAL
psu
5-day plot - Visibility
VIS
nmi
5-day plot - Tide (above MLLW)
TIDE
ft
2024-04-14 02:33 pmNNW 4 7------ 38.8- 32.2---
2024-04-14 02:23 pm NW 4 7------ 38.8- 32.0---
2024-04-14 02:13 pm NW 3 5------ 39.0- 32.0---
2024-04-14 02:03 pmWNW 3 5------ 39.0- 31.8---
2024-04-14 01:53 pm NW 3 5------ 39.0- 31.6---
2024-04-14 01:43 pmWNW 3 4------ 38.8- 31.8---
2024-04-14 01:33 pm NW 3 4------ 38.7- 31.8---
2024-04-14 01:23 pmWNW 4 5------ 38.5- 31.8---
2024-04-14 01:13 pmWNW 3 5------ 38.3- 32.0---
2024-04-14 01:03 pmWNW 4 6------ 38.1- 32.0---
2024-04-14 12:53 pmWNW 5 7------ 37.9- 31.8---
2024-04-14 12:43 pmWNW 5 7------ 37.8- 31.8---
2024-04-14 12:33 pmWNW 5 7------ 37.8- 31.6---
2024-04-14 12:23 pmWNW 5 6------ 37.6- 31.6---
2024-04-14 12:13 pmWNW 6 7------ 37.4- 32.2---
2024-04-14 12:03 pm NW 6 8------ 37.2- 32.4---
2024-04-14 11:53 am NW 6 8------ 37.0- 32.5---
2024-04-14 11:43 am NW 6 8------ 36.9- 32.5---
2024-04-14 11:33 am NW 6 8------ 36.7- 32.4---
2024-04-14 11:23 am NW 6 8------ 36.5- 32.2---
2024-04-14 11:13 amNNW 5 6------ 36.5- 32.4---
2024-04-14 11:03 am NW 4 6------ 36.3- 32.5---
2024-04-14 10:53 amNNW 4 6------ 36.1- 32.4---
2024-04-14 10:43 amNNW 5 8------ 35.8- 32.2---
2024-04-14 10:33 am NW 6 8------ 35.8- 32.0---
2024-04-14 10:23 amNNW 5 9------ 35.8- 32.0---
2024-04-14 10:13 amNNW 6 8------ 36.0- 32.0---
2024-04-14 10:03 amNNW 6 8------ 36.3- 31.8---
2024-04-14 09:53 am N 4 7------ 36.7- 31.6---
2024-04-14 09:43 amNNE 2 5------ 37.2- 32.2---
2024-04-14 09:33 am N 2 4------ 37.2- 32.4---
2024-04-14 09:23 am- 0 2------ 36.9- 32.5---
2024-04-14 09:13 am SW 2 5------ 36.0- 32.2---
2024-04-14 09:03 amWSW 4 7------ 35.6- 31.8---
2024-04-14 08:53 amWSW 7 10------ 35.4- 31.6---
2024-04-14 08:43 amWSW 7 10------ 35.6- 31.8---
2024-04-14 08:33 amSSW 5 8------ 36.1- 31.5---
2024-04-14 08:23 am S 3 8------ 36.3- 31.5---
2024-04-14 08:13 am SE 3 4------ 36.5- 31.5---
2024-04-14 08:03 amSSE 4 6------ 36.3- 31.6---
2024-04-14 07:53 amSSE 4 6------ 36.0- 31.6---
2024-04-14 07:43 amSSE 6 9------ 36.0- 31.8---
2024-04-14 07:33 am S 4 7------ 36.0- 31.6---
2024-04-14 07:23 am E 6 8------ 35.6- 31.3---
2024-04-14 07:13 am E 8 13------ 35.6- 31.1---
2024-04-14 07:03 am E 8 13------ 35.8- 31.1---
2024-04-14 06:53 am E 8 14------ 35.8- 31.1---
2024-04-14 06:43 am E 6 13------ 36.0- 30.9---
2024-04-14 06:33 am E 7 10------ 35.4- 31.1---
2024-04-14 06:23 am E 8 13------ 35.6- 31.1---
2024-04-14 06:13 am E 9 12------ 35.4- 31.1---
2024-04-14 06:03 am E 8 13------ 35.4- 31.1---
2024-04-14 05:53 amENE 5 8------ 35.6- 30.9---
2024-04-14 05:43 am NE 4 7------ 35.6- 30.9---
2024-04-14 05:33 am E 3 8------ 35.4- 30.7---
2024-04-14 05:23 am NE 5 9------ 35.2- 30.9---
2024-04-14 05:13 amENE 6 10------ 35.4- 30.9---
2024-04-14 05:03 amENE 5 10------ 35.6- 30.7---
2024-04-14 04:53 amESE 3 8------ 35.8- 30.9---
2024-04-14 04:43 amENE 4 6------ 35.6- 31.1---
2024-04-14 04:33 amENE 4 7------ 35.2- 31.1---
2024-04-14 04:23 amENE 5 8------ 35.4- 31.6---
2024-04-14 04:13 am NE 4 11------ 35.4- 31.5---
2024-04-14 04:03 am NE 6 10------ 35.2- 31.8---
2024-04-14 03:53 amENE 6 8------ 35.1- 31.6---
2024-04-14 03:43 am NE 6 9------ 35.2- 31.6---
2024-04-14 03:33 am E 5 8------ 35.2- 31.5---
2024-04-14 03:23 am E 4 6------ 35.1- 31.3---
2024-04-14 03:13 amESE 4 7------ 35.2- 31.5---
2024-04-14 03:03 amSSE 4 6------ 35.4- 31.5---
2024-04-14 02:53 amSSE 7 11------ 35.8- 31.5---
2024-04-14 02:43 am S 6 10------ 36.3- 32.0---
2024-04-14 02:33 am SW 4 10------ 36.5- 32.0---
2024-04-14 02:23 am SW 3 6------ 37.2- 32.2---
2024-04-14 02:13 am NE 4 7------ 37.0- 32.0---
2024-04-14 02:03 amESE 4 8------ 37.0- 31.8---
2024-04-14 01:53 am SE 5 7------ 36.9- 31.6---
2024-04-14 01:43 amSSE 7 10------ 37.2- 31.5---
2024-04-14 01:33 amSSE 7 10------ 37.0- 31.5---
2024-04-14 01:23 amSSE 7 9------ 37.0- 31.6---
2024-04-14 01:13 amSSE 7 10------ 37.0- 31.3---
2024-04-14 01:03 amSSE 8 12------ 37.0- 31.1---
2024-04-14 12:53 amSSE 7 10------ 36.9- 31.5---
2024-04-14 12:43 amSSE 10 15------ 36.5- 31.5---
2024-04-14 12:33 amSSE 11 14------ 36.5- 31.6---
2024-04-14 12:23 amSSE 12 15------ 36.5- 31.6---
2024-04-14 12:14 amSSE 14 21------ 36.9- 31.8---
2024-04-14 12:03 amSSE 10 15------ 37.0- 32.0---
2024-04-13 11:53 pmSSE 9 14------ 37.0- 32.2---
2024-04-13 11:43 pmSSE 8 11------ 37.0- 32.0---
2024-04-13 11:33 pmSSE 9 12------ 37.0- 32.2---
2024-04-13 11:23 pmSSE 9 13------ 37.0- 32.2---
2024-04-13 11:13 pmSSE 9 12------ 37.0- 32.4---
2024-04-13 11:03 pmSSE 9 13------ 36.9- 32.5---
2024-04-13 10:53 pmSSE 10 13------ 36.7- 32.5---
2024-04-13 10:43 pmSSE 8 10------ 36.3- 32.5---
2024-04-13 10:33 pmSSE 10 13------ 36.5- 32.5---
2024-04-13 10:23 pm S 4 11------ 36.5- 32.7---
2024-04-13 10:13 pm S 4 7------ 36.5- 32.7---
2024-04-13 10:03 pm S 7 10------ 36.5- 32.7---
2024-04-13 09:53 pmSSE 9 12------ 36.3- 32.0---
2024-04-13 09:43 pmSSE 9 11------ 36.1- 31.8---
2024-04-13 09:33 pmSSE 8 11------ 36.1- 31.6---
2024-04-13 09:23 pmSSE 8 12------ 36.0- 31.5---
2024-04-13 09:13 pm SE 3 7------ 35.6- 30.6---
2024-04-13 09:03 pmSSW 8 17------ 35.8- 30.9---
2024-04-13 08:53 pmWSW 15 21------ 36.7- 32.4---
2024-04-13 08:43 pm SW 6 15------ 37.0- 33.4---
2024-04-13 08:33 pm S 6 9------ 36.9- 33.1---
2024-04-13 08:23 pmSSE 8 10------ 36.7- 32.9---
2024-04-13 08:13 pm S 7 11------ 36.7- 32.9---
2024-04-13 08:03 pm S 8 11------ 36.3- 32.7---
2024-04-13 07:53 pm S 8 12------ 36.1- 32.7---
2024-04-13 07:43 pm S 6 11------ 35.6- 32.5---
2024-04-13 07:33 pm S 6 11------ 35.2- 32.4---
2024-04-13 07:23 pm W 16 25------ 34.7- 31.5---
2024-04-13 07:13 pmWSW 16 25------ 37.0- 32.7---
2024-04-13 07:03 pm S 10 13------ 37.9- 33.4---
2024-04-13 06:53 pm S 10 14------ 37.8- 33.6---
2024-04-13 06:43 pm S 9 12------ 37.8- 33.6---
2024-04-13 06:33 pmSSE 10 13------ 37.4- 33.3---
2024-04-13 06:23 pm S 9 13------ 37.2- 33.3---
2024-04-13 06:13 pmSSE 11 16------ 36.5- 32.9---
2024-04-13 06:03 pm S 9 14------ 35.6- 32.4---
2024-04-13 05:53 pmSSW 7 14------ 34.7- 31.5---
2024-04-13 05:43 pm S 7 15------ 36.5- 33.1---
2024-04-13 05:33 pm SE 6 9------ 36.5- 32.9---
2024-04-13 05:23 pm S 6 9------ 36.7- 33.1---
2024-04-13 05:13 pm S 7 10------ 36.7- 33.3---
2024-04-13 05:03 pmSSW 5 8------ 36.7- 33.3---
2024-04-13 04:53 pmSSW 5 10------ 36.1- 32.9---
2024-04-13 04:43 pmSSW 6 12------ 35.4- 32.0---
2024-04-13 04:33 pmSSW 8 16------ 35.8- 32.0---
2024-04-13 04:23 pm S 11 25------ 37.4- 32.9---
2024-04-13 04:13 pm S 14 25------ 38.5- 33.4---
2024-04-13 03:53 pm S 8 12------ 39.7- 33.8---
2024-04-13 03:43 pm S 7 12------ 40.1- 34.0---
2024-04-13 03:33 pm S 7 11------ 40.1- 34.0---
2024-04-13 03:23 pm S 7 13------ 39.9- 34.2---
2024-04-13 03:13 pm S 7 11------ 39.4- 34.0---
2024-04-13 03:03 pm S 9 14------ 39.0- 33.6---
2024-04-13 02:53 pm S 9 13------ 38.7- 33.6---
2024-04-13 02:43 pm S 7 15------ 38.1- 33.6---
2024-04-13 02:33 pm S 7 11------ 37.8- 33.8---
2024-04-13 02:23 pm S 7 13------ 37.0- 33.4---
2024-04-13 02:13 pmSSW 7 14------ 37.2- 33.6---
2024-04-13 02:03 pmSSW 9 19------ 37.6- 34.0---
2024-04-13 01:53 pm SW 6 10------ 37.8- 34.0---